createdAt,value
2019-04-07T00:01:24.073Z,31.43
2019-04-07T00:03:53.325Z,32.33
2019-04-07T00:06:23.612Z,31.57
2019-04-07T00:08:56.338Z,31.27
2019-04-07T00:11:27.843Z,32.20
2019-04-07T00:13:57.949Z,31.60
2019-04-07T00:16:27.434Z,36.67
2019-04-07T00:18:57.841Z,31.17
2019-04-07T00:21:28.069Z,32.40
2019-04-07T00:23:58.134Z,34.93
2019-04-07T00:26:28.099Z,31.37
2019-04-07T00:28:57.934Z,30.93
2019-04-07T00:31:29.104Z,34.10
2019-04-07T00:33:58.306Z,31.00
2019-04-07T00:36:28.312Z,34.23
2019-04-07T00:38:58.445Z,34.27
2019-04-07T00:41:29.968Z,32.07
2019-04-07T00:44:00.011Z,33.37
2019-04-07T00:46:30.116Z,35.37
2019-04-07T00:49:00.302Z,34.97
2019-04-07T00:51:29.769Z,41.63
2019-04-07T00:53:59.832Z,37.47
2019-04-07T00:56:29.305Z,37.33
2019-04-07T00:58:58.844Z,35.10
2019-04-07T01:01:31.855Z,35.53
2019-04-07T01:04:02.488Z,36.70
2019-04-07T01:06:31.986Z,37.17
2019-04-07T01:09:01.819Z,36.30
2019-04-07T01:11:31.229Z,33.10
2019-04-07T01:14:03.126Z,35.23
2019-04-07T01:16:32.745Z,34.00
2019-04-07T01:19:03.433Z,35.83
2019-04-07T01:21:33.186Z,32.83
2019-04-07T01:24:02.489Z,34.97
2019-04-07T01:26:32.733Z,35.73
2019-04-07T01:29:02.965Z,35.10
2019-04-07T01:31:33.040Z,37.47
2019-04-07T01:34:03.225Z,37.13
2019-04-07T01:36:32.920Z,34.07
2019-04-07T01:39:02.958Z,32.13
2019-04-07T01:41:43.003Z,35.33
2019-04-07T01:44:27.651Z,36.67
2019-04-07T01:47:16.731Z,39.97
2019-04-07T01:50:02.228Z,34.27
2019-04-07T01:52:51.223Z,34.80
2019-04-07T01:55:32.261Z,35.60
2019-04-07T01:58:22.740Z,40.83
2019-04-07T02:01:04.611Z,37.93
2019-04-07T02:03:57.251Z,36.43
2019-04-07T02:06:46.615Z,39.30
2019-04-07T02:09:35.831Z,40.07
2019-04-07T02:12:36.698Z,38.83
2019-04-07T02:15:23.029Z,35.80
2019-04-07T02:18:13.560Z,37.50
2019-04-07T02:21:03.373Z,34.40
2019-04-07T02:23:51.352Z,34.73
2019-04-07T02:26:57.674Z,35.67
2019-04-07T02:29:38.085Z,37.80
2019-04-07T02:32:25.896Z,35.07
2019-04-07T02:35:25.875Z,34.77
2019-04-07T02:38:00.379Z,34.63
2019-04-07T02:40:57.415Z,35.87
2019-04-07T02:43:34.065Z,35.27
2019-04-07T02:46:35.175Z,33.80
2019-04-07T02:49:36.593Z,36.83
2019-04-07T02:52:23.733Z,39.37
2019-04-07T02:55:14.728Z,33.13
2019-04-07T02:58:06.544Z,34.63
2019-04-07T03:00:42.109Z,33.17
2019-04-07T03:03:39.152Z,35.77
2019-04-07T03:06:39.181Z,34.30
2019-04-07T03:09:16.836Z,34.97
2019-04-07T03:12:05.672Z,39.67
2019-04-07T03:14:54.378Z,34.27
2019-04-07T03:17:31.960Z,34.40
2019-04-07T03:20:18.939Z,35.30
2019-04-07T03:23:10.781Z,32.37
2019-04-07T03:26:00.717Z,33.77
2019-04-07T03:28:43.899Z,31.00
2019-04-07T03:31:36.531Z,35.67
2019-04-07T03:34:33.466Z,31.63
2019-04-07T03:37:33.100Z,34.37
2019-04-07T03:40:11.603Z,35.97
2019-04-07T03:42:59.361Z,31.53
2019-04-07T03:45:36.434Z,36.07
2019-04-07T03:48:31.785Z,36.77
2019-04-07T03:51:33.161Z,35.90
2019-04-07T03:54:16.670Z,35.57
2019-04-07T03:57:03.461Z,35.33
2019-04-07T03:59:53.986Z,31.73
2019-04-07T04:02:42.384Z,34.40
2019-04-07T04:05:28.103Z,34.17
2019-04-07T04:08:26.610Z,35.93
2019-04-07T04:11:06.545Z,32.60
2019-04-07T04:13:58.265Z,34.83
2019-04-07T04:16:34.031Z,33.33
2019-04-07T04:19:05.120Z,35.83
2019-04-07T04:21:34.414Z,36.03
2019-04-07T04:24:04.361Z,37.37
2019-04-07T04:26:37.917Z,33.17
2019-04-07T04:29:08.313Z,37.73
2019-04-07T04:31:38.866Z,31.00
2019-04-07T04:34:10.203Z,30.77
2019-04-07T04:36:40.762Z,28.87
2019-04-07T04:39:10.754Z,35.27
2019-04-07T04:41:40.901Z,32.23
2019-04-07T04:44:10.394Z,43.77
2019-04-07T04:46:41.107Z,36.57
2019-04-07T04:49:11.866Z,37.07
2019-04-07T04:51:42.611Z,36.07
2019-04-07T04:54:12.606Z,32.70
2019-04-07T04:56:43.428Z,35.63
2019-04-07T04:59:12.931Z,32.37
2019-04-07T05:01:43.293Z,33.93
2019-04-07T05:04:13.410Z,34.10
2019-04-07T05:06:45.668Z,30.47
2019-04-07T05:09:16.069Z,34.93
2019-04-07T05:11:45.278Z,32.90
2019-04-07T05:14:15.197Z,31.50
2019-04-07T05:16:44.773Z,32.63
2019-04-07T05:19:14.289Z,34.47
2019-04-07T05:21:44.354Z,38.53
2019-04-07T05:24:13.517Z,31.53
2019-04-07T05:26:43.301Z,33.63
2019-04-07T05:29:12.475Z,36.47
2019-04-07T05:31:41.967Z,33.50
2019-04-07T05:34:14.273Z,31.77
2019-04-07T05:36:42.405Z,28.30
2019-04-07T05:39:15.402Z,31.60
2019-04-07T05:41:45.027Z,28.23
2019-04-07T05:44:21.088Z,32.10
2019-04-07T05:46:52.855Z,31.60
2019-04-07T05:49:24.271Z,31.97
2019-04-07T05:51:54.475Z,30.13
2019-04-07T05:54:24.064Z,30.00
2019-04-07T05:56:54.125Z,32.30
2019-04-07T05:59:25.407Z,31.20
2019-04-07T06:02:00.755Z,32.20
2019-04-07T06:04:28.330Z,31.43
2019-04-07T06:07:00.384Z,32.43
2019-04-07T06:09:32.845Z,32.43
2019-04-07T06:12:03.025Z,30.40
2019-04-07T06:14:32.357Z,29.97
2019-04-07T06:17:02.361Z,30.43
2019-04-07T06:19:31.573Z,29.43
2019-04-07T06:22:07.519Z,33.17
2019-04-07T06:24:36.155Z,31.63
2019-04-07T06:27:07.091Z,29.63
2019-04-07T06:29:36.606Z,29.50
2019-04-07T06:32:09.760Z,29.43
2019-04-07T06:34:39.884Z,28.57
2019-04-07T06:37:07.758Z,27.83
2019-04-07T06:39:37.385Z,27.57
2019-04-07T06:42:07.486Z,27.83
2019-04-07T06:44:38.524Z,25.43
2019-04-07T06:47:21.462Z,24.13
2019-04-07T06:50:14.199Z,25.50
2019-04-07T06:53:10.575Z,24.20
2019-04-07T06:56:00.033Z,25.07
2019-04-07T06:58:45.158Z,22.50
2019-04-07T07:01:32.300Z,21.93
2019-04-07T07:04:19.450Z,23.37
2019-04-07T07:07:07.330Z,22.80
2019-04-07T07:09:52.050Z,21.07
2019-04-07T07:12:38.810Z,19.40
2019-04-07T07:15:34.653Z,19.13
2019-04-07T07:18:27.321Z,22.83
2019-04-07T07:21:38.066Z,22.60
2019-04-07T07:24:07.145Z,18.30
2019-04-07T07:26:36.642Z,18.53
2019-04-07T07:29:06.825Z,19.20
2019-04-07T07:31:39.107Z,17.07
2019-04-07T07:34:10.664Z,16.43
2019-04-07T07:36:41.824Z,16.30
2019-04-07T07:39:14.526Z,16.20
2019-04-07T07:41:44.469Z,16.57
2019-04-07T07:44:14.400Z,15.23
2019-04-07T07:46:44.426Z,15.37
2019-04-07T07:49:15.908Z,15.30
2019-04-07T07:51:48.550Z,13.13
2019-04-07T07:54:18.313Z,12.40
2019-04-07T07:56:50.133Z,13.80
2019-04-07T07:59:20.067Z,12.03
2019-04-07T08:01:51.669Z,11.23
2019-04-07T08:04:24.814Z,11.90
2019-04-07T08:06:54.462Z,15.60
2019-04-07T08:09:25.990Z,13.13
2019-04-07T08:11:55.569Z,11.17
2019-04-07T08:14:27.329Z,13.87
2019-04-07T08:17:00.174Z,13.50
2019-04-07T08:19:29.659Z,26.40
2019-04-07T08:21:58.539Z,13.63
2019-04-07T08:24:28.274Z,12.03
2019-04-07T08:26:59.088Z,11.00
2019-04-07T08:29:30.253Z,12.93
2019-04-07T08:32:00.361Z,10.77
2019-04-07T08:34:31.513Z,10.90
2019-04-07T08:37:00.955Z,11.50
2019-04-07T08:39:34.125Z,10.70
2019-04-07T08:42:04.722Z,9.17
2019-04-07T08:44:34.410Z,9.67
2019-04-07T08:47:04.213Z,8.40
2019-04-07T08:49:34.519Z,10.83
2019-04-07T08:52:09.044Z,7.33
2019-04-07T08:54:36.934Z,6.00
2019-04-07T08:57:07.080Z,5.40
2019-04-07T08:59:39.873Z,5.17
2019-04-07T09:02:07.614Z,5.77
2019-04-07T09:04:36.801Z,6.70
2019-04-07T09:07:06.247Z,5.97
2019-04-07T09:09:37.473Z,7.20
2019-04-07T09:12:07.207Z,6.10
2019-04-07T09:14:38.721Z,4.67
2019-04-07T09:17:30.931Z,6.17
2019-04-07T09:20:18.968Z,5.57
2019-04-07T09:23:08.139Z,6.27
2019-04-07T09:26:04.028Z,5.00
2019-04-07T09:28:57.467Z,4.73
2019-04-07T09:31:49.673Z,5.00
2019-04-07T09:34:41.380Z,5.00
2019-04-07T09:37:23.546Z,3.97
2019-04-07T09:40:06.757Z,3.80
2019-04-07T09:42:57.596Z,5.23
2019-04-07T09:45:32.453Z,4.13
2019-04-07T09:48:07.927Z,3.80
2019-04-07T09:50:58.648Z,4.77
2019-04-07T09:53:42.429Z,4.20
2019-04-07T09:56:27.252Z,4.00
2019-04-07T09:59:10.056Z,4.37
2019-04-07T10:01:52.848Z,3.93
2019-04-07T10:04:37.930Z,5.20
2019-04-07T10:07:28.400Z,4.33
2019-04-07T10:10:13.748Z,4.53
2019-04-07T10:13:06.687Z,4.07
2019-04-07T10:16:10.776Z,4.07
2019-04-07T10:19:07.624Z,4.33
2019-04-07T10:21:51.765Z,4.13
2019-04-07T10:24:34.714Z,4.43
2019-04-07T10:27:11.185Z,3.90
2019-04-07T10:29:58.143Z,3.90
2019-04-07T10:32:34.067Z,4.53
2019-04-07T10:35:30.668Z,6.07
2019-04-07T10:38:09.976Z,5.23
2019-04-07T10:40:52.551Z,5.47
2019-04-07T10:43:41.007Z,4.60
2019-04-07T10:46:31.229Z,4.20
2019-04-07T10:49:19.289Z,4.93
2019-04-07T10:52:23.513Z,5.23
2019-04-07T10:55:10.105Z,4.10
2019-04-07T10:57:49.401Z,4.20
2019-04-07T11:00:48.823Z,4.00
2019-04-07T11:03:26.256Z,3.77
2019-04-07T11:06:21.524Z,5.17
2019-04-07T11:09:08.825Z,4.53
2019-04-07T11:11:57.765Z,5.00
2019-04-07T11:14:48.125Z,4.33
2019-04-07T11:17:29.234Z,4.73
2019-04-07T11:20:20.555Z,4.10
2019-04-07T11:23:13.002Z,4.20
2019-04-07T11:26:07.590Z,4.23
2019-04-07T11:28:47.059Z,4.03
2019-04-07T11:31:26.680Z,3.73
2019-04-07T11:34:19.300Z,4.83
2019-04-07T11:37:14.306Z,4.70
2019-04-07T11:40:04.797Z,5.87
2019-04-07T11:42:44.852Z,5.27
2019-04-07T11:45:32.055Z,5.90
2019-04-07T11:48:18.681Z,6.20
2019-04-07T11:51:16.864Z,5.33
2019-04-07T11:54:11.477Z,5.30
2019-04-07T11:56:51.205Z,4.27
2019-04-07T11:59:39.255Z,6.77
2019-04-07T12:02:20.810Z,4.87
2019-04-07T12:05:08.202Z,5.53
2019-04-07T12:07:58.182Z,6.63
2019-04-07T12:11:04.924Z,5.33
2019-04-07T12:13:56.292Z,6.57
2019-04-07T12:16:33.835Z,5.00
2019-04-07T12:19:23.860Z,5.27
2019-04-07T12:22:13.871Z,4.93
2019-04-07T12:25:10.593Z,4.90
2019-04-07T12:27:58.115Z,8.33
2019-04-07T12:31:02.165Z,6.47
2019-04-07T12:33:59.962Z,4.73
2019-04-07T12:36:48.354Z,4.63
2019-04-07T12:39:28.835Z,5.03
2019-04-07T12:42:22.343Z,5.67
2019-04-07T12:45:11.222Z,6.30
2019-04-07T12:47:55.485Z,5.13
2019-04-07T12:50:37.642Z,6.87
2019-04-07T12:53:26.682Z,5.17
2019-04-07T12:56:13.522Z,5.20
2019-04-07T12:58:52.675Z,8.73
2019-04-07T13:01:35.250Z,6.33
2019-04-07T13:04:27.518Z,5.70
2019-04-07T13:07:05.755Z,6.20
2019-04-07T13:10:02.876Z,5.97
2019-04-07T13:13:05.085Z,6.00
2019-04-07T13:16:00.352Z,5.80
2019-04-07T13:18:50.332Z,6.03
2019-04-07T13:21:25.561Z,6.00
2019-04-07T13:24:28.388Z,6.20
2019-04-07T13:26:52.743Z,5.33
2019-04-07T13:29:43.284Z,5.57
2019-04-07T13:32:40.237Z,6.43
2019-04-07T13:35:24.629Z,5.60
2019-04-07T13:38:12.275Z,5.83
2019-04-07T13:41:00.716Z,6.97
2019-04-07T13:44:07.611Z,5.40
2019-04-07T13:46:54.309Z,7.13
2019-04-07T13:49:55.390Z,6.60
2019-04-07T13:52:41.956Z,6.07
2019-04-07T13:55:22.096Z,6.17
2019-04-07T13:58:13.934Z,6.63
2019-04-07T14:00:55.828Z,6.43
2019-04-07T14:03:40.606Z,6.50
2019-04-07T14:06:20.528Z,6.17
2019-04-07T14:09:19.147Z,6.03
2019-04-07T14:12:12.332Z,6.27
2019-04-07T14:15:06.044Z,6.87
2019-04-07T14:18:00.057Z,6.20
2019-04-07T14:20:52.902Z,7.17
2019-04-07T14:23:54.650Z,6.13
2019-04-07T14:26:58.911Z,6.60
2019-04-07T14:29:53.611Z,6.00
2019-04-07T14:32:42.781Z,6.97
2019-04-07T14:35:30.521Z,7.10
2019-04-07T14:38:40.059Z,7.37
2019-04-07T14:41:29.947Z,6.07
2019-04-07T14:44:26.491Z,5.60
2019-04-07T14:47:08.795Z,6.70
2019-04-07T14:50:00.556Z,6.80
2019-04-07T14:52:58.512Z,6.40
2019-04-07T14:56:07.723Z,8.10
2019-04-07T14:58:51.304Z,6.00
2019-04-07T15:01:41.098Z,6.57
2019-04-07T15:04:10.863Z,6.03
2019-04-07T15:06:40.557Z,6.20
2019-04-07T15:09:29.493Z,6.40
2019-04-07T15:12:20.139Z,9.40
2019-04-07T15:14:45.981Z,7.63
2019-04-07T15:17:17.698Z,10.67
2019-04-07T15:19:49.311Z,9.73
2019-04-07T15:22:19.599Z,8.93
2019-04-07T15:24:49.512Z,9.57
2019-04-07T15:27:21.931Z,7.93
2019-04-07T15:29:51.339Z,8.30
2019-04-07T15:32:24.527Z,8.03
2019-04-07T15:34:54.654Z,8.70
2019-04-07T15:37:25.123Z,8.67
2019-04-07T15:39:54.272Z,9.03
2019-04-07T15:42:34.964Z,8.10
2019-04-07T15:44:54.526Z,9.23
2019-04-07T15:47:25.489Z,8.13
2019-04-07T15:50:05.414Z,7.97
2019-04-07T15:52:37.058Z,7.40
2019-04-07T15:55:07.268Z,7.93
2019-04-07T15:57:37.276Z,7.97
2019-04-07T16:00:07.903Z,8.20
2019-04-07T16:02:40.939Z,7.77
2019-04-07T16:05:11.604Z,8.63
2019-04-07T16:07:42.087Z,8.17
2019-04-07T16:10:11.665Z,8.87
2019-04-07T16:12:49.601Z,9.47
2019-04-07T16:15:16.584Z,9.37
2019-04-07T16:17:47.613Z,9.03
2019-04-07T16:20:23.224Z,8.00
2019-04-07T16:22:53.178Z,9.07
2019-04-07T16:25:27.536Z,9.03
2019-04-07T16:27:54.622Z,8.77
2019-04-07T16:30:24.810Z,9.20
2019-04-07T16:32:54.792Z,8.90
2019-04-07T16:35:27.826Z,10.00
2019-04-07T16:37:58.327Z,10.07
2019-04-07T16:40:29.239Z,10.03
2019-04-07T16:43:07.679Z,8.47
2019-04-07T16:45:30.450Z,8.80
2019-04-07T16:48:00.026Z,9.70
2019-04-07T16:50:31.560Z,9.93
2019-04-07T16:53:04.507Z,9.97
2019-04-07T16:55:37.211Z,11.10
2019-04-07T16:58:14.469Z,9.37
2019-04-07T17:00:47.599Z,8.80
2019-04-07T17:03:18.218Z,10.10
2019-04-07T17:05:47.422Z,8.87
2019-04-07T17:08:22.461Z,11.23
2019-04-07T17:10:52.755Z,10.47
2019-04-07T17:13:37.085Z,10.57
2019-04-07T17:15:59.398Z,11.43
2019-04-07T17:18:41.205Z,10.77
2019-04-07T17:21:15.644Z,11.00
2019-04-07T17:23:46.068Z,8.77
2019-04-07T17:26:15.316Z,10.40
2019-04-07T17:28:47.413Z,8.80
2019-04-07T17:31:17.492Z,8.97
2019-04-07T17:33:49.527Z,8.83
2019-04-07T17:36:21.636Z,11.13
2019-04-07T17:39:18.650Z,9.37
2019-04-07T17:41:50.947Z,10.30
2019-04-07T17:44:41.726Z,10.27
2019-04-07T17:47:39.379Z,9.90
2019-04-07T17:50:31.579Z,10.73
2019-04-07T17:53:16.159Z,9.83
2019-04-07T17:56:06.796Z,11.00
2019-04-07T17:58:45.734Z,9.70
2019-04-07T18:01:43.063Z,9.53
2019-04-07T18:04:25.563Z,10.80
2019-04-07T18:07:12.381Z,10.83
2019-04-07T18:10:15.470Z,10.07
2019-04-07T18:12:55.611Z,9.60
2019-04-07T18:15:40.113Z,10.07
2019-04-07T18:18:24.911Z,10.90
2019-04-07T18:21:13.307Z,9.93
2019-04-07T18:24:15.511Z,10.63
2019-04-07T18:27:00.369Z,8.63
2019-04-07T18:29:53.957Z,11.73
2019-04-07T18:33:03.071Z,10.13
2019-04-07T18:35:54.317Z,9.30
2019-04-07T18:38:54.962Z,9.70
2019-04-07T18:41:36.528Z,10.83
2019-04-07T18:44:29.484Z,11.27
2019-04-07T18:47:31.611Z,9.80
2019-04-07T18:50:39.667Z,9.67
2019-04-07T18:53:48.665Z,11.13
2019-04-07T18:56:46.176Z,9.77
2019-04-07T18:59:55.588Z,11.43
2019-04-07T19:02:33.271Z,10.97
2019-04-07T19:05:31.571Z,12.50
2019-04-07T19:08:20.118Z,12.63
2019-04-07T19:11:16.591Z,10.13
2019-04-07T19:14:33.490Z,10.97
2019-04-07T19:17:10.795Z,9.93
2019-04-07T19:19:59.528Z,10.23
2019-04-07T19:22:52.829Z,10.63
2019-04-07T19:25:47.863Z,10.90
2019-04-07T19:28:43.153Z,10.83
2019-04-07T19:31:30.407Z,9.70
2019-04-07T19:34:20.589Z,9.57
2019-04-07T19:36:57.161Z,11.10
2019-04-07T19:39:53.610Z,10.90
2019-04-07T19:42:39.902Z,10.33
2019-04-07T19:45:30.701Z,11.20
2019-04-07T19:48:30.893Z,10.33
2019-04-07T19:51:29.379Z,11.17
2019-04-07T19:54:19.111Z,10.87
2019-04-07T19:57:17.612Z,11.27
2019-04-07T20:00:06.192Z,11.20
2019-04-07T20:02:53.168Z,11.07
2019-04-07T20:05:57.061Z,12.27
2019-04-07T20:08:49.302Z,14.53
2019-04-07T20:11:37.112Z,12.23
2019-04-07T20:14:45.079Z,13.53
2019-04-07T20:17:29.291Z,11.73
2019-04-07T20:20:15.850Z,12.13
2019-04-07T20:23:12.503Z,12.53
2019-04-07T20:26:01.710Z,11.73
2019-04-07T20:28:45.105Z,13.67
2019-04-07T20:31:23.732Z,13.23
2019-04-07T20:34:12.031Z,12.87
2019-04-07T20:37:00.206Z,14.73
2019-04-07T20:39:51.106Z,12.40
2019-04-07T20:42:48.424Z,13.03
2019-04-07T20:45:36.588Z,17.13
2019-04-07T20:48:33.495Z,12.77
2019-04-07T20:51:26.333Z,13.97
2019-04-07T20:54:07.656Z,16.00
2019-04-07T20:56:48.412Z,13.70
2019-04-07T20:59:48.614Z,13.00
2019-04-07T21:02:29.341Z,13.30
2019-04-07T21:05:22.939Z,15.83
2019-04-07T21:08:08.522Z,15.57
2019-04-07T21:11:04.755Z,16.33
2019-04-07T21:13:47.332Z,17.70
2019-04-07T21:16:32.463Z,16.47
2019-04-07T21:19:12.505Z,15.13
2019-04-07T21:22:01.323Z,15.17
2019-04-07T21:24:51.746Z,14.30
2019-04-07T21:27:52.831Z,16.33
2019-04-07T21:30:43.001Z,14.80
2019-04-07T21:33:25.654Z,16.27
2019-04-07T21:36:14.151Z,16.30
2019-04-07T21:39:20.462Z,15.17
2019-04-07T21:42:09.276Z,15.23
2019-04-07T21:45:05.441Z,17.40
2019-04-07T21:47:59.893Z,19.03
2019-04-07T21:50:56.842Z,15.93
2019-04-07T21:53:51.487Z,17.47
2019-04-07T21:56:43.171Z,17.27
2019-04-07T21:59:33.809Z,18.00
2019-04-07T22:02:21.737Z,18.27
2019-04-07T22:05:26.890Z,15.97
2019-04-07T22:08:14.599Z,16.10
2019-04-07T22:10:40.174Z,19.40
2019-04-07T22:13:16.988Z,16.97
2019-04-07T22:15:51.870Z,15.23
2019-04-07T22:18:18.151Z,15.00
2019-04-07T22:20:52.301Z,16.30
2019-04-07T22:23:22.986Z,16.47
2019-04-07T22:25:54.846Z,16.60
2019-04-07T22:28:28.357Z,16.57
2019-04-07T22:30:57.460Z,16.80
2019-04-07T22:33:30.126Z,17.83
2019-04-07T22:35:57.672Z,15.20
2019-04-07T22:38:27.431Z,16.67
2019-04-07T22:40:58.375Z,17.03
2019-04-07T22:43:50.830Z,15.47
2019-04-07T22:46:24.557Z,14.60
2019-04-07T22:48:53.173Z,17.33
2019-04-07T22:51:23.803Z,15.73
2019-04-07T22:53:56.855Z,16.77
2019-04-07T22:56:29.844Z,19.40
2019-04-07T22:59:01.592Z,17.27
2019-04-07T23:01:33.378Z,16.87
2019-04-07T23:04:03.498Z,16.87
2019-04-07T23:06:34.073Z,16.67
2019-04-07T23:09:06.341Z,17.00
2019-04-07T23:11:35.803Z,16.20
2019-04-07T23:14:09.387Z,14.37
2019-04-07T23:16:38.717Z,19.13
2019-04-07T23:19:08.796Z,15.57
2019-04-07T23:21:38.429Z,16.87
2019-04-07T23:24:07.775Z,16.73
2019-04-07T23:26:36.940Z,14.33
2019-04-07T23:29:06.638Z,18.50
2019-04-07T23:31:36.330Z,17.47
2019-04-07T23:34:06.367Z,17.30
2019-04-07T23:36:36.185Z,17.27
2019-04-07T23:39:07.716Z,16.87
2019-04-07T23:41:37.300Z,17.53
2019-04-07T23:44:07.407Z,14.63
2019-04-07T23:46:36.579Z,17.37
2019-04-07T23:49:06.057Z,17.50
2019-04-07T23:51:35.252Z,16.40
2019-04-07T23:54:14.282Z,14.40
2019-04-07T23:56:44.670Z,14.53
2019-04-07T23:59:14.665Z,14.67
